Time;durP1;ratioP1;P1;durP2;ratioP2;P2;SDS_P1;SDS_P2;PMS_P1;PMS_P2;Temp;Humidity;BMP_temperature;BMP_pressure;BME280_temperature;BME280_humidity;BME280_pressure;Samples;Min_cycle;Max_cycle;Signal;HPM_P1;HPM_P2
2023/06/25 00:01:15;;;;;;;14.37;8.83;;;;;;;;;;5068098;28;20260;-57
2023/06/25 00:03:41;;;;;;;16.33;12.40;;;;;;;;;;5088803;28;20326;-56
2023/06/25 00:06:06;;;;;;;19.67;17.70;;;;;;;;;;5086642;28;20115;-55
2023/06/25 00:08:31;;;;;;;40.37;37.27;;;;;;;;;;5090559;28;20380;-58
2023/06/25 00:10:56;;;;;;;58.60;54.30;;;;;;;;;;5090532;28;20265;-58
2023/06/25 00:13:22;;;;;;;51.07;47.47;;;;;;;;;;5091518;28;20659;-55
2023/06/25 00:15:47;;;;;;;57.33;52.93;;;;;;;;;;5090983;28;20279;-57
2023/06/25 00:18:12;;;;;;;56.22;51.90;;;;;;;;;;5090315;28;20256;-55
2023/06/25 00:20:38;;;;;;;13.93;9.85;;;;;;;;;;5091557;28;20025;-57
2023/06/25 00:23:05;;;;;;;50.13;46.42;;;;;;;;;;5091561;28;20032;-58
2023/06/25 00:25:30;;;;;;;63.20;58.78;;;;;;;;;;5091617;28;20028;-52
2023/06/25 00:27:57;;;;;;;44.35;40.88;;;;;;;;;;5091295;28;20077;-56
2023/06/25 00:30:23;;;;;;;23.45;21.40;;;;;;;;;;5092417;28;20016;-54
2023/06/25 00:32:54;;;;;;;22.83;20.50;;;;;;;;;;5087711;28;20085;-57
2023/06/25 00:35:24;;;;;;;18.75;16.60;;;;;;;;;;5090970;28;20032;-56
2023/06/25 00:37:50;;;;;;;50.35;46.78;;;;;;;;;;5090140;28;20024;-58
2023/06/25 00:40:15;;;;;;;46.88;43.33;;;;;;;;;;5091877;28;20461;-54
2023/06/25 00:42:41;;;;;;;43.75;40.47;;;;;;;;;;5090951;28;20036;-55
2023/06/25 00:45:07;;;;;;;70.78;65.63;;;;;;;;;;5092228;28;20573;-58
2023/06/25 00:47:32;;;;;;;51.78;48.30;;;;;;;;;;5090306;28;20166;-55
2023/06/25 00:50:00;;;;;;;25.60;22.98;;;;;;;;;;5088855;28;20119;-55
2023/06/25 00:52:25;;;;;;;15.88;14.32;;;;;;;;;;5089207;28;20116;-58
2023/06/25 00:54:51;;;;;;;15.02;13.57;;;;;;;;;;5091000;28;20024;-57
2023/06/25 00:57:16;;;;;;;10.27;7.77;;;;;;;;;;5089152;28;20118;-56
2023/06/25 00:59:43;;;;;;;14.35;12.88;;;;;;;;;;5091939;28;20266;-56
2023/06/25 01:02:23;;;;;;;16.63;15.13;;;;;;;;;;5089796;28;20067;-58
2023/06/25 01:05:07;;;;;;;17.42;13.10;;;;;;;;;;5090869;28;20036;-53
2023/06/25 01:07:36;;;;;;;11.45;7.10;;;;;;;;;;5090481;28;20066;-57
2023/06/25 01:10:01;;;;;;;20.52;18.75;;;;;;;;;;5089154;28;20028;-55
2023/06/25 01:12:28;;;;;;;13.27;11.05;;;;;;;;;;5089448;28;20630;-57
2023/06/25 01:14:54;;;;;;;12.77;6.72;;;;;;;;;;5091311;28;20131;-57
2023/06/25 01:17:20;;;;;;;11.23;7.97;;;;;;;;;;5089631;28;20597;-58
2023/06/25 01:19:45;;;;;;;13.57;10.07;;;;;;;;;;5090043;28;20031;-57
2023/06/25 01:22:11;;;;;;;17.63;14.07;;;;;;;;;;5086674;28;20126;-58
2023/06/25 01:24:37;;;;;;;16.90;15.23;;;;;;;;;;5089509;28;20032;-54
2023/06/25 01:27:04;;;;;;;14.27;11.25;;;;;;;;;;5089409;28;20035;-56
2023/06/25 01:29:30;;;;;;;11.00;8.65;;;;;;;;;;5091091;28;20060;-57
2023/06/25 01:31:57;;;;;;;12.93;8.68;;;;;;;;;;5088691;28;20032;-55
2023/06/25 01:34:22;;;;;;;13.82;10.43;;;;;;;;;;5088348;28;20040;-58
2023/06/25 01:36:51;;;;;;;13.50;11.73;;;;;;;;;;5088674;28;20028;-57
2023/06/25 01:39:20;;;;;;;9.15;6.60;;;;;;;;;;5105551;28;20024;-57
2023/06/25 01:41:46;;;;;;;12.05;6.50;;;;;;;;;;5088855;28;20503;-58
2023/06/25 01:44:13;;;;;;;12.10;7.40;;;;;;;;;;5090948;28;20726;-57
2023/06/25 01:46:38;;;;;;;12.50;10.63;;;;;;;;;;5084570;28;20035;-55
2023/06/25 01:49:04;;;;;;;13.25;9.85;;;;;;;;;;5090863;28;20024;-56
2023/06/25 01:51:31;;;;;;;27.42;24.95;;;;;;;;;;5088557;28;20169;-56
2023/06/25 01:53:56;;;;;;;19.48;17.50;;;;;;;;;;5089435;28;20093;-57
2023/06/25 01:56:22;;;;;;;26.77;24.48;;;;;;;;;;5088521;28;20035;-56
2023/06/25 01:58:47;;;;;;;29.23;26.47;;;;;;;;;;5090792;28;20020;-56
2023/06/25 02:01:12;;;;;;;28.52;26.08;;;;;;;;;;5089722;28;20268;-56
2023/06/25 02:03:37;;;;;;;34.67;31.70;;;;;;;;;;5070106;28;20038;-54
2023/06/25 02:06:03;;;;;;;28.33;25.90;;;;;;;;;;5087142;28;20103;-57
2023/06/25 02:08:28;;;;;;;29.10;26.55;;;;;;;;;;5090184;28;20526;-58
2023/06/25 02:10:53;;;;;;;15.53;13.90;;;;;;;;;;5087578;28;20457;-56
2023/06/25 02:13:19;;;;;;;23.40;19.35;;;;;;;;;;5089919;28;20241;-52
2023/06/25 02:15:44;;;;;;;12.13;10.43;;;;;;;;;;5087765;28;20027;-58
2023/06/25 02:18:09;;;;;;;13.38;10.88;;;;;;;;;;5090096;28;20120;-57
2023/06/25 02:20:34;;;;;;;24.52;21.77;;;;;;;;;;5087699;28;20042;-55
2023/06/25 02:23:00;;;;;;;15.67;12.70;;;;;;;;;;5089282;28;20031;-53
2023/06/25 02:25:25;;;;;;;16.70;14.93;;;;;;;;;;5087837;28;20268;-56
2023/06/25 02:27:50;;;;;;;12.37;9.93;;;;;;;;;;5087074;28;20263;-56
2023/06/25 02:30:15;;;;;;;11.23;8.75;;;;;;;;;;5088932;28;20357;-57
2023/06/25 02:32:41;;;;;;;12.20;8.13;;;;;;;;;;5085678;28;20372;-55
2023/06/25 02:35:08;;;;;;;19.30;12.77;;;;;;;;;;5088829;28;20314;-55
2023/06/25 02:37:33;;;;;;;14.75;11.88;;;;;;;;;;5086897;28;20813;-57
2023/06/25 02:39:58;;;;;;;16.70;15.13;;;;;;;;;;5102912;28;20036;-57
2023/06/25 02:42:24;;;;;;;20.77;19.05;;;;;;;;;;5084764;28;20280;-56
2023/06/25 02:44:49;;;;;;;20.00;17.97;;;;;;;;;;5089759;28;20020;-56
2023/06/25 02:47:14;;;;;;;45.80;42.50;;;;;;;;;;5087417;28;20768;-56
2023/06/25 02:49:39;;;;;;;22.42;20.52;;;;;;;;;;5100526;28;20268;-55
2023/06/25 02:52:05;;;;;;;26.07;23.90;;;;;;;;;;5086975;28;20031;-57
2023/06/25 02:54:30;;;;;;;24.70;22.60;;;;;;;;;;5089173;28;20267;-58
2023/06/25 02:56:56;;;;;;;17.17;15.37;;;;;;;;;;5089268;28;20035;-57
2023/06/25 02:59:21;;;;;;;15.00;13.45;;;;;;;;;;5089514;28;20341;-57
2023/06/25 03:01:47;;;;;;;16.23;12.90;;;;;;;;;;5088626;28;20506;-56
2023/06/25 03:04:12;;;;;;;18.50;16.80;;;;;;;;;;5069121;28;20027;-54
2023/06/25 03:06:37;;;;;;;12.30;10.00;;;;;;;;;;5068983;28;20017;-58
2023/06/25 03:09:02;;;;;;;16.98;11.32;;;;;;;;;;5082050;28;20349;-54
2023/06/25 03:11:28;;;;;;;14.93;11.43;;;;;;;;;;5088170;28;20115;-55
2023/06/25 03:13:53;;;;;;;18.30;14.63;;;;;;;;;;5088083;28;20024;-56
2023/06/25 03:16:18;;;;;;;11.20;9.17;;;;;;;;;;5088347;28;20024;-56
2023/06/25 03:18:44;;;;;;;13.48;8.27;;;;;;;;;;5088062;28;20245;-55
2023/06/25 03:21:09;;;;;;;13.82;11.23;;;;;;;;;;5088248;28;20114;-57
2023/06/25 03:23:34;;;;;;;15.88;14.20;;;;;;;;;;5102144;28;20081;-53
2023/06/25 03:26:00;;;;;;;12.15;7.55;;;;;;;;;;5085416;28;20453;-55
2023/06/25 03:28:25;;;;;;;10.10;7.18;;;;;;;;;;5087530;28;20034;-53
2023/06/25 03:30:50;;;;;;;10.83;9.53;;;;;;;;;;5086615;28;20073;-58
2023/06/25 03:33:15;;;;;;;14.23;12.77;;;;;;;;;;5088735;28;20721;-56
2023/06/25 03:35:41;;;;;;;12.47;9.60;;;;;;;;;;5088823;28;20237;-54
2023/06/25 03:38:06;;;;;;;10.90;8.63;;;;;;;;;;5088859;28;20339;-56
2023/06/25 03:40:31;;;;;;;12.98;8.82;;;;;;;;;;5088659;28;20369;-57
2023/06/25 03:42:56;;;;;;;10.43;7.07;;;;;;;;;;5088597;28;20059;-54
2023/06/25 03:45:22;;;;;;;13.27;8.50;;;;;;;;;;5089072;28;20717;-57
2023/06/25 03:47:47;;;;;;;11.20;9.20;;;;;;;;;;5089009;28;20313;-56
2023/06/25 03:50:12;;;;;;;9.57;6.55;;;;;;;;;;5089073;28;20264;-57
2023/06/25 03:52:37;;;;;;;13.47;6.60;;;;;;;;;;5087752;28;20035;-55
2023/06/25 03:55:03;;;;;;;10.38;7.15;;;;;;;;;;5087844;28;20286;-57
2023/06/25 03:57:29;;;;;;;8.57;6.90;;;;;;;;;;5087715;28;20020;-55
2023/06/25 03:59:54;;;;;;;12.73;8.10;;;;;;;;;;5087848;28;20032;-57
2023/06/25 04:02:19;;;;;;;9.60;8.47;;;;;;;;;;5086129;28;20024;-56
2023/06/25 04:04:44;;;;;;;7.77;6.27;;;;;;;;;;5068014;28;20449;-57
2023/06/25 04:07:10;;;;;;;9.00;5.18;;;;;;;;;;5085668;28;20749;-58
2023/06/25 04:09:35;;;;;;;11.23;5.38;;;;;;;;;;5088381;28;20020;-57
2023/06/25 04:12:00;;;;;;;7.95;4.97;;;;;;;;;;5086077;28;20376;-57
2023/06/25 04:14:26;;;;;;;10.98;5.88;;;;;;;;;;5088399;28;20405;-57
2023/06/25 04:16:51;;;;;;;8.37;5.17;;;;;;;;;;5088288;28;20020;-57
2023/06/25 04:19:16;;;;;;;9.20;5.72;;;;;;;;;;5088590;28;20781;-57
2023/06/25 04:21:41;;;;;;;10.30;5.60;;;;;;;;;;5085881;28;20109;-56
2023/06/25 04:24:07;;;;;;;9.40;5.43;;;;;;;;;;5088352;28;20241;-58
2023/06/25 04:26:32;;;;;;;11.70;6.65;;;;;;;;;;5088477;28;20388;-55
2023/06/25 04:28:58;;;;;;;11.88;6.45;;;;;;;;;;5087442;28;20538;-57
2023/06/25 04:31:23;;;;;;;8.65;7.00;;;;;;;;;;5088138;28;20032;-56
2023/06/25 04:33:49;;;;;;;11.43;7.60;;;;;;;;;;5087808;28;20028;-56
2023/06/25 04:36:14;;;;;;;8.63;7.60;;;;;;;;;;5088287;28;20035;-57
2023/06/25 04:38:40;;;;;;;10.50;7.35;;;;;;;;;;5088022;28;20026;-57
2023/06/25 04:41:05;;;;;;;9.03;6.77;;;;;;;;;;5088250;28;20091;-53
2023/06/25 04:43:30;;;;;;;7.60;6.57;;;;;;;;;;5088278;28;20306;-58
2023/06/25 04:45:55;;;;;;;8.98;8.02;;;;;;;;;;5086843;28;20370;-53
2023/06/25 04:48:21;;;;;;;10.43;9.32;;;;;;;;;;5088052;28;20048;-55
2023/06/25 04:50:46;;;;;;;9.47;6.77;;;;;;;;;;5087852;28;20016;-56
2023/06/25 04:53:11;;;;;;;15.90;14.60;;;;;;;;;;5087503;28;20265;-56
2023/06/25 04:55:37;;;;;;;12.27;10.95;;;;;;;;;;5090069;28;20107;-56
2023/06/25 04:58:02;;;;;;;12.07;7.83;;;;;;;;;;5090717;28;20055;-58
2023/06/25 05:00:27;;;;;;;10.50;9.45;;;;;;;;;;5090938;28;20252;-56
2023/06/25 05:02:53;;;;;;;8.27;6.15;;;;;;;;;;5091455;28;20032;-56
2023/06/25 05:05:18;;;;;;;11.23;5.43;;;;;;;;;;5091251;28;20452;-58
2023/06/25 05:07:43;;;;;;;22.15;8.68;;;;;;;;;;5105237;28;20032;-57
2023/06/25 05:10:09;;;;;;;17.70;10.63;;;;;;;;;;5090510;28;20036;-55
2023/06/25 05:12:34;;;;;;;20.35;12.50;;;;;;;;;;5089368;28;20480;-54
2023/06/25 05:15:00;;;;;;;21.73;8.40;;;;;;;;;;5088478;28;20044;-57
2023/06/25 05:17:25;;;;;;;22.00;10.68;;;;;;;;;;5091243;28;20576;-56
2023/06/25 05:19:50;;;;;;;22.02;20.00;;;;;;;;;;5090197;28;20028;-55
2023/06/25 05:22:16;;;;;;;25.33;21.57;;;;;;;;;;5090094;28;20032;-56
2023/06/25 05:24:41;;;;;;;26.02;23.77;;;;;;;;;;5090242;28;20252;-56
2023/06/25 05:27:06;;;;;;;14.00;10.30;;;;;;;;;;5089386;28;20024;-57
2023/06/25 05:29:31;;;;;;;16.43;12.63;;;;;;;;;;5090662;28;20284;-55
2023/06/25 05:31:58;;;;;;;18.08;11.48;;;;;;;;;;5088469;28;20313;-57
2023/06/25 05:34:24;;;;;;;14.25;10.45;;;;;;;;;;5089712;28;20362;-58
2023/06/25 05:36:49;;;;;;;14.13;10.50;;;;;;;;;;5088759;28;20032;-52
2023/06/25 05:39:14;;;;;;;18.05;12.00;;;;;;;;;;5089607;28;20315;-55
2023/06/25 05:41:40;;;;;;;15.38;10.05;;;;;;;;;;5088953;28;20075;-57
2023/06/25 05:44:05;;;;;;;17.05;11.73;;;;;;;;;;5090800;28;20027;-57
2023/06/25 05:46:30;;;;;;;12.85;11.60;;;;;;;;;;5089710;28;20024;-55
2023/06/25 05:48:55;;;;;;;20.93;19.00;;;;;;;;;;5086315;28;20046;-56
2023/06/25 05:51:21;;;;;;;17.40;14.80;;;;;;;;;;5085706;28;20280;-56
2023/06/25 05:53:46;;;;;;;12.37;11.10;;;;;;;;;;5088718;28;20059;-52
2023/06/25 05:56:11;;;;;;;19.00;17.45;;;;;;;;;;5087927;28;20265;-56
2023/06/25 05:58:37;;;;;;;16.75;14.98;;;;;;;;;;5070837;28;20409;-52
2023/06/25 06:01:02;;;;;;;19.55;17.65;;;;;;;;;;5088278;28;20481;-55
2023/06/25 06:03:28;;;;;;;15.88;14.40;;;;;;;;;;5090494;28;20035;-55
2023/06/25 06:05:55;;;;;;;20.10;18.23;;;;;;;;;;5088454;28;20028;-56
2023/06/25 06:08:20;;;;;;;19.15;17.58;;;;;;;;;;5069866;28;20025;-56
2023/06/25 06:10:46;;;;;;;10.80;8.57;;;;;;;;;;5085825;28;20046;-56
2023/06/25 06:13:11;;;;;;;12.82;10.65;;;;;;;;;;5087834;28;20272;-56
2023/06/25 06:15:36;;;;;;;15.77;10.80;;;;;;;;;;5086785;28;20039;-52
2023/06/25 06:18:02;;;;;;;13.93;7.93;;;;;;;;;;5088732;28;20027;-56
2023/06/25 06:20:27;;;;;;;13.55;10.40;;;;;;;;;;5085545;28;20453;-55
2023/06/25 06:22:53;;;;;;;15.95;13.60;;;;;;;;;;5085582;28;20028;-58
2023/06/25 06:25:18;;;;;;;17.08;10.40;;;;;;;;;;5089590;28;20112;-56
2023/06/25 06:27:43;;;;;;;20.87;13.03;;;;;;;;;;5088110;28;20104;-56
2023/06/25 06:30:09;;;;;;;10.75;7.35;;;;;;;;;;5088575;28;20232;-56
2023/06/25 06:32:34;;;;;;;14.73;7.97;;;;;;;;;;5080977;28;20116;-57
2023/06/25 06:34:59;;;;;;;20.10;17.65;;;;;;;;;;5088757;28;20028;-56
2023/06/25 06:37:25;;;;;;;21.10;18.97;;;;;;;;;;5085599;28;20024;-56
2023/06/25 06:39:50;;;;;;;20.23;12.20;;;;;;;;;;5088803;28;20275;-54
2023/06/25 06:42:15;;;;;;;21.75;19.70;;;;;;;;;;5085696;28;20304;-54
2023/06/25 06:44:41;;;;;;;23.70;15.98;;;;;;;;;;5088858;28;20024;-57
2023/06/25 06:47:06;;;;;;;25.17;22.58;;;;;;;;;;5088208;28;20016;-57
2023/06/25 06:49:31;;;;;;;26.55;23.98;;;;;;;;;;5088778;28;20012;-58
2023/06/25 06:51:56;;;;;;;18.83;17.02;;;;;;;;;;5085063;28;20480;-58
2023/06/25 06:54:22;;;;;;;19.15;17.38;;;;;;;;;;5088645;28;20059;-57
2023/06/25 06:56:47;;;;;;;16.67;14.95;;;;;;;;;;5084443;28;20703;-55
2023/06/25 06:59:12;;;;;;;15.10;10.32;;;;;;;;;;5086861;28;20023;-56
2023/06/25 07:01:38;;;;;;;17.17;10.05;;;;;;;;;;5088605;28;20024;-58
2023/06/25 07:04:03;;;;;;;13.25;11.38;;;;;;;;;;5089214;28;20483;-56
2023/06/25 07:06:28;;;;;;;14.98;10.60;;;;;;;;;;5079332;28;20031;-57
2023/06/25 07:08:54;;;;;;;10.77;7.53;;;;;;;;;;5068586;28;20023;-57
2023/06/25 07:11:19;;;;;;;13.50;8.85;;;;;;;;;;5074128;28;20284;-56
2023/06/25 07:13:45;;;;;;;12.82;10.43;;;;;;;;;;5087569;28;20114;-57
2023/06/25 07:16:10;;;;;;;14.43;7.28;;;;;;;;;;5087070;28;20016;-56
2023/06/25 07:18:35;;;;;;;13.32;10.25;;;;;;;;;;5088320;28;20020;-57
2023/06/25 07:21:01;;;;;;;15.27;8.60;;;;;;;;;;5087732;28;20437;-55
2023/06/25 07:23:26;;;;;;;11.80;7.45;;;;;;;;;;5088629;28;20107;-57
2023/06/25 07:25:51;;;;;;;13.02;10.75;;;;;;;;;;5086498;28;20077;-56
2023/06/25 07:28:16;;;;;;;14.27;12.00;;;;;;;;;;5088038;28;20020;-56
2023/06/25 07:30:42;;;;;;;17.13;11.70;;;;;;;;;;5086032;28;20264;-56
2023/06/25 07:33:07;;;;;;;13.25;8.30;;;;;;;;;;5088111;28;20392;-55
2023/06/25 07:35:32;;;;;;;12.18;6.40;;;;;;;;;;5086237;28;20024;-57
2023/06/25 07:37:58;;;;;;;11.47;7.30;;;;;;;;;;5087278;28;20502;-57
2023/06/25 07:40:23;;;;;;;9.67;8.50;;;;;;;;;;5087787;28;20276;-57
2023/06/25 07:42:48;;;;;;;15.50;11.03;;;;;;;;;;5086546;28;20284;-56
2023/06/25 07:45:13;;;;;;;12.90;9.03;;;;;;;;;;5102724;28;20708;-56
2023/06/25 07:47:39;;;;;;;10.98;9.00;;;;;;;;;;5086415;28;20257;-55
2023/06/25 07:50:05;;;;;;;11.57;6.05;;;;;;;;;;5089001;28;20016;-54
2023/06/25 07:52:30;;;;;;;13.45;11.73;;;;;;;;;;5085569;28;20036;-55
2023/06/25 07:54:55;;;;;;;9.43;7.27;;;;;;;;;;5087851;28;20032;-57
2023/06/25 07:57:20;;;;;;;8.23;6.53;;;;;;;;;;5086067;28;20260;-57
2023/06/25 07:59:47;;;;;;;11.95;7.55;;;;;;;;;;5087732;28;20287;-57
2023/06/25 08:02:12;;;;;;;7.63;5.35;;;;;;;;;;5086488;28;20677;-57
2023/06/25 08:04:38;;;;;;;9.75;5.70;;;;;;;;;;5088651;28;20103;-55
2023/06/25 08:07:03;;;;;;;8.07;4.90;;;;;;;;;;5087553;28;20024;-58
2023/06/25 08:09:28;;;;;;;9.48;5.03;;;;;;;;;;5088500;28;20834;-55
2023/06/25 08:11:54;;;;;;;4.93;3.78;;;;;;;;;;5086378;28;20537;-56
2023/06/25 08:14:19;;;;;;;8.65;4.18;;;;;;;;;;5088136;28;20028;-57
2023/06/25 08:16:44;;;;;;;10.23;4.82;;;;;;;;;;5084600;28;20031;-56
2023/06/25 08:19:09;;;;;;;10.03;4.40;;;;;;;;;;5087675;28;20499;-58
2023/06/25 08:21:35;;;;;;;8.45;4.35;;;;;;;;;;5086206;28;20269;-57
2023/06/25 08:24:00;;;;;;;5.40;3.88;;;;;;;;;;5085973;28;20036;-58
2023/06/25 08:26:25;;;;;;;7.38;4.43;;;;;;;;;;5084877;28;20031;-57
2023/06/25 08:28:52;;;;;;;6.70;3.80;;;;;;;;;;5087702;28;20137;-57
2023/06/25 08:31:17;;;;;;;7.30;3.97;;;;;;;;;;5087183;28;20361;-54
2023/06/25 08:33:42;;;;;;;10.57;4.03;;;;;;;;;;5090872;28;20047;-56
2023/06/25 08:36:08;;;;;;;6.47;3.80;;;;;;;;;;5090158;28;20024;-55
2023/06/25 08:38:35;;;;;;;14.87;3.80;;;;;;;;;;5092304;28;20245;-57
2023/06/25 08:41:00;;;;;;;9.40;4.20;;;;;;;;;;5090820;28;20280;-57
2023/06/25 08:43:26;;;;;;;7.18;3.13;;;;;;;;;;5088366;28;20097;-58
2023/06/25 08:45:51;;;;;;;6.15;3.58;;;;;;;;;;5087261;28;20081;-57
2023/06/25 08:48:16;;;;;;;5.93;3.60;;;;;;;;;;5088707;28;20068;-55
2023/06/25 08:50:43;;;;;;;11.75;4.15;;;;;;;;;;5086528;28;20761;-56
2023/06/25 08:53:08;;;;;;;8.52;4.22;;;;;;;;;;5088695;28;20431;-54
2023/06/25 08:55:34;;;;;;;5.32;3.72;;;;;;;;;;5088101;28;20024;-57
2023/06/25 08:57:59;;;;;;;7.20;3.85;;;;;;;;;;5088295;28;20032;-56
2023/06/25 09:00:25;;;;;;;4.47;3.53;;;;;;;;;;5088847;28;20123;-56
2023/06/25 09:02:50;;;;;;;7.82;3.38;;;;;;;;;;5087883;28;20032;-57
2023/06/25 09:05:22;;;;;;;5.97;3.50;;;;;;;;;;5086627;28;20113;-56
2023/06/25 09:07:47;;;;;;;4.22;3.63;;;;;;;;;;5087400;28;20821;-56
2023/06/25 09:10:12;;;;;;;6.03;3.70;;;;;;;;;;5054690;28;20161;-57
2023/06/25 09:12:38;;;;;;;8.52;3.53;;;;;;;;;;5087768;28;20055;-56
2023/06/25 09:15:05;;;;;;;3.83;3.00;;;;;;;;;;5090719;28;20048;-57
2023/06/25 09:17:30;;;;;;;6.25;3.10;;;;;;;;;;5089153;28;20085;-58
2023/06/25 09:20:01;;;;;;;5.90;3.50;;;;;;;;;;5091258;28;20419;-56
2023/06/25 09:22:26;;;;;;;4.70;3.20;;;;;;;;;;5087120;28;20032;-57
2023/06/25 09:24:52;;;;;;;4.22;3.08;;;;;;;;;;5091375;28;20012;-58
2023/06/25 09:27:20;;;;;;;4.13;3.17;;;;;;;;;;5088976;28;20051;-58
2023/06/25 09:29:45;;;;;;;4.85;2.97;;;;;;;;;;5089883;28;20566;-55
2023/06/25 09:32:11;;;;;;;4.88;3.50;;;;;;;;;;5088400;28;20064;-56
2023/06/25 09:34:39;;;;;;;4.45;3.25;;;;;;;;;;5090982;28;20111;-57
2023/06/25 09:37:04;;;;;;;5.25;3.28;;;;;;;;;;5089068;28;20036;-57
2023/06/25 09:39:30;;;;;;;4.38;3.28;;;;;;;;;;5091114;28;20062;-58
2023/06/25 09:41:56;;;;;;;6.72;3.20;;;;;;;;;;5088188;28;20083;-58
2023/06/25 09:44:21;;;;;;;6.35;3.30;;;;;;;;;;5088791;28;20111;-55
2023/06/25 09:46:47;;;;;;;3.83;2.85;;;;;;;;;;5088821;28;20020;-58
2023/06/25 09:49:13;;;;;;;4.43;2.92;;;;;;;;;;5089797;28;20035;-56
2023/06/25 09:51:55;;;;;;;5.65;2.90;;;;;;;;;;5087616;28;20473;-55
2023/06/25 09:54:22;;;;;;;4.88;2.65;;;;;;;;;;5070353;28;20487;-55
2023/06/25 09:56:48;;;;;;;5.18;2.95;;;;;;;;;;5081043;28;20039;-62
2023/06/25 09:59:32;;;;;;;5.30;3.03;;;;;;;;;;5090885;28;20500;-56
2023/06/25 10:01:57;;;;;;;5.90;2.70;;;;;;;;;;5088502;28;20028;-56
2023/06/25 10:04:23;;;;;;;3.43;3.13;;;;;;;;;;5090701;28;20025;-58
2023/06/25 10:06:49;;;;;;;9.73;3.22;;;;;;;;;;5088680;28;20111;-54
2023/06/25 10:09:14;;;;;;;4.13;2.50;;;;;;;;;;5090619;28;20471;-56
2023/06/25 10:11:49;;;;;;;3.10;2.40;;;;;;;;;;5087558;28;20031;-58
2023/06/25 10:14:15;;;;;;;5.80;2.58;;;;;;;;;;5089647;28;20273;-57
2023/06/25 10:16:40;;;;;;;4.88;2.72;;;;;;;;;;5088123;28;20027;-57
2023/06/25 10:19:05;;;;;;;5.40;2.57;;;;;;;;;;5089372;28;20778;-52
2023/06/25 10:21:31;;;;;;;7.97;2.97;;;;;;;;;;5086882;28;20016;-58
2023/06/25 10:24:03;;;;;;;6.00;3.15;;;;;;;;;;5088865;28;20125;-56
2023/06/25 10:26:32;;;;;;;4.03;2.72;;;;;;;;;;5087364;28;20097;-56
2023/06/25 10:29:04;;;;;;;4.68;2.75;;;;;;;;;;5089802;28;20028;-57
2023/06/25 10:31:39;;;;;;;5.07;2.65;;;;;;;;;;5086222;28;20393;-57
2023/06/25 10:34:05;;;;;;;8.77;2.78;;;;;;;;;;5088653;28;20042;-57
2023/06/25 10:36:30;;;;;;;8.13;2.80;;;;;;;;;;5087509;28;20031;-57
2023/06/25 10:38:58;;;;;;;5.68;2.90;;;;;;;;;;5089708;28;20032;-57
2023/06/25 10:41:27;;;;;;;6.95;3.25;;;;;;;;;;5087488;28;20051;-57
2023/06/25 10:43:52;;;;;;;;;;;;;;;;;;5089875;28;20028;-57
2023/06/25 10:46:17;;;;;;;9.90;3.15;;;;;;;;;;5086074;28;20317;-54
2023/06/25 10:48:45;;;;;;;3.30;2.57;;;;;;;;;;5088781;28;20028;-54
2023/06/25 10:51:10;;;;;;;3.22;2.75;;;;;;;;;;5086280;28;20358;-57
2023/06/25 10:53:35;;;;;;;3.90;2.67;;;;;;;;;;5087753;28;20049;-54
2023/06/25 10:56:02;;;;;;;6.75;3.08;;;;;;;;;;5102705;28;20436;-57
2023/06/25 10:58:27;;;;;;;4.70;2.60;;;;;;;;;;5088851;28;20102;-58
2023/06/25 11:00:53;;;;;;;3.87;3.30;;;;;;;;;;5085014;28;20553;-57
2023/06/25 11:03:18;;;;;;;5.43;2.78;;;;;;;;;;5086966;28;20457;-58
2023/06/25 11:05:46;;;;;;;6.00;3.35;;;;;;;;;;5088515;28;20137;-58
2023/06/25 11:08:12;;;;;;;3.50;3.05;;;;;;;;;;5088012;28;20034;-54
2023/06/25 11:10:38;;;;;;;5.00;3.45;;;;;;;;;;5086211;28;20020;-56
2023/06/25 11:13:03;;;;;;;3.45;2.72;;;;;;;;;;5068218;28;20032;-56
2023/06/25 11:15:32;;;;;;;2.70;2.50;;;;;;;;;;5081555;28;20050;-56
2023/06/25 11:17:58;;;;;;;3.42;2.90;;;;;;;;;;5088271;28;20046;-56
2023/06/25 11:20:23;;;;;;;5.38;3.40;;;;;;;;;;5087593;28;20441;-54
2023/06/25 11:22:49;;;;;;;3.85;3.00;;;;;;;;;;5086619;28;20062;-57
2023/06/25 11:25:14;;;;;;;4.27;3.43;;;;;;;;;;5089352;28;20421;-58
2023/06/25 11:27:40;;;;;;;4.28;3.50;;;;;;;;;;5087069;28;20252;-56
2023/06/25 11:30:07;;;;;;;5.28;3.55;;;;;;;;;;5087900;28;20528;-56
2023/06/25 11:32:33;;;;;;;4.97;3.35;;;;;;;;;;5086732;28;20044;-54
2023/06/25 11:34:58;;;;;;;4.15;3.28;;;;;;;;;;5088233;28;20024;-59
2023/06/25 11:37:26;;;;;;;5.63;3.50;;;;;;;;;;5087641;28;20081;-58
2023/06/25 11:39:51;;;;;;;4.60;3.15;;;;;;;;;;5087542;28;20028;-57
2023/06/25 11:42:18;;;;;;;4.25;3.50;;;;;;;;;;5086986;28;20048;-57
2023/06/25 11:44:44;;;;;;;5.07;3.95;;;;;;;;;;5087586;28;20028;-58
2023/06/25 11:47:10;;;;;;;3.95;3.53;;;;;;;;;;5086938;28;20051;-55
2023/06/25 11:49:36;;;;;;;3.70;3.10;;;;;;;;;;5088874;28;20031;-56
2023/06/25 11:52:02;;;;;;;4.15;3.38;;;;;;;;;;5086484;28;20036;-57
2023/06/25 11:54:28;;;;;;;4.43;3.30;;;;;;;;;;5086384;28;20028;-57
2023/06/25 11:56:53;;;;;;;3.70;3.15;;;;;;;;;;5086749;28;20272;-58
2023/06/25 11:59:18;;;;;;;5.33;3.70;;;;;;;;;;5103399;28;20119;-59
2023/06/25 12:01:44;;;;;;;4.97;4.00;;;;;;;;;;5086752;28;20028;-58
2023/06/25 12:04:09;;;;;;;5.03;3.80;;;;;;;;;;5089830;28;20252;-57
2023/06/25 12:06:34;;;;;;;5.23;3.87;;;;;;;;;;5089768;28;20306;-57
2023/06/25 12:09:00;;;;;;;6.90;4.57;;;;;;;;;;5092856;28;20252;-59
2023/06/25 12:11:25;;;;;;;6.33;4.33;;;;;;;;;;5089593;28;20039;-57
2023/06/25 12:13:50;;;;;;;4.40;4.00;;;;;;;;;;5092687;28;20051;-58
2023/06/25 12:16:15;;;;;;;4.93;3.40;;;;;;;;;;5090213;28;20033;-56
2023/06/25 12:18:41;;;;;;;4.22;3.60;;;;;;;;;;5092571;28;20121;-57
2023/06/25 12:21:06;;;;;;;5.33;3.30;;;;;;;;;;5091597;28;20451;-57
2023/06/25 12:23:31;;;;;;;7.17;3.30;;;;;;;;;;5092591;28;20276;-56
2023/06/25 12:25:56;;;;;;;3.77;3.33;;;;;;;;;;5090497;28;20364;-58
2023/06/25 12:28:22;;;;;;;3.67;3.03;;;;;;;;;;5090788;28;20635;-55
2023/06/25 12:30:47;;;;;;;4.20;3.33;;;;;;;;;;5089170;28;20021;-58
2023/06/25 12:33:12;;;;;;;4.40;3.60;;;;;;;;;;5088918;28;20730;-56
2023/06/25 12:35:38;;;;;;;6.67;3.67;;;;;;;;;;5088156;28;20267;-57
2023/06/25 12:38:03;;;;;;;8.35;4.13;;;;;;;;;;5072096;28;20238;-56
2023/06/25 12:40:28;;;;;;;4.50;3.40;;;;;;;;;;5089658;28;20052;-57
2023/06/25 12:42:56;;;;;;;3.30;2.92;;;;;;;;;;5090603;28;20032;-56
2023/06/25 12:45:21;;;;;;;6.70;3.58;;;;;;;;;;5091875;28;20024;-57
2023/06/25 12:47:47;;;;;;;4.22;2.53;;;;;;;;;;5086477;28;20067;-56
2023/06/25 12:50:12;;;;;;;5.72;2.42;;;;;;;;;;5091385;28;20077;-58
2023/06/25 12:52:38;;;;;;;2.70;2.00;;;;;;;;;;5088843;28;20108;-58
2023/06/25 12:55:05;;;;;;;2.67;2.38;;;;;;;;;;5091474;28;20334;-57
2023/06/25 12:57:33;;;;;;;5.45;2.60;;;;;;;;;;5089988;28;20074;-57
2023/06/25 12:59:58;;;;;;;2.88;2.30;;;;;;;;;;5091381;28;20056;-58
2023/06/25 13:02:23;;;;;;;4.00;2.60;;;;;;;;;;5090552;28;20055;-56
2023/06/25 13:04:49;;;;;;;2.60;2.10;;;;;;;;;;5091360;28;20035;-58
2023/06/25 13:07:14;;;;;;;3.77;2.37;;;;;;;;;;5089369;28;20048;-57
2023/06/25 13:09:39;;;;;;;3.80;2.40;;;;;;;;;;5090828;28;20024;-57
2023/06/25 13:12:05;;;;;;;4.63;2.50;;;;;;;;;;5085104;28;20457;-58
2023/06/25 13:14:30;;;;;;;4.60;2.40;;;;;;;;;;5087356;28;20031;-57
2023/06/25 13:16:55;;;;;;;5.30;2.17;;;;;;;;;;5085879;28;20041;-57
2023/06/25 13:19:20;;;;;;;3.10;2.10;;;;;;;;;;5091173;28;20288;-57
2023/06/25 13:21:46;;;;;;;2.97;2.17;;;;;;;;;;5088036;28;20078;-58
2023/06/25 13:24:12;;;;;;;7.35;2.40;;;;;;;;;;5091083;28;20154;-58
2023/06/25 13:26:37;;;;;;;3.45;2.30;;;;;;;;;;5089781;28;20457;-58
2023/06/25 13:29:03;;;;;;;3.20;2.13;;;;;;;;;;5090965;28;20071;-55
2023/06/25 13:31:28;;;;;;;2.23;2.03;;;;;;;;;;5088395;28;20035;-58
2023/06/25 13:33:53;;;;;;;5.17;2.30;;;;;;;;;;5090746;28;20458;-58
2023/06/25 13:36:19;;;;;;;2.70;2.50;;;;;;;;;;5088561;28;20028;-57
2023/06/25 13:38:44;;;;;;;4.80;2.72;;;;;;;;;;5090524;28;20024;-56
2023/06/25 13:41:09;;;;;;;2.73;2.00;;;;;;;;;;5088597;28;20048;-57
2023/06/25 13:43:35;;;;;;;3.45;2.28;;;;;;;;;;5090522;28;20055;-57
2023/06/25 13:46:01;;;;;;;4.22;2.30;;;;;;;;;;5089064;28;20020;-54
2023/06/25 13:48:28;;;;;;;3.97;2.75;;;;;;;;;;5090387;28;20024;-57
2023/06/25 13:50:53;;;;;;;3.50;2.58;;;;;;;;;;5089483;28;20032;-58
2023/06/25 13:53:19;;;;;;;3.33;2.40;;;;;;;;;;5088510;28;20028;-56
2023/06/25 13:55:44;;;;;;;3.25;2.35;;;;;;;;;;5087317;28;20260;-56
2023/06/25 13:58:09;;;;;;;4.65;2.60;;;;;;;;;;5075414;28;20115;-55
2023/06/25 14:00:35;;;;;;;4.03;2.57;;;;;;;;;;5088982;28;20024;-56
2023/06/25 14:03:05;;;;;;;4.00;2.80;;;;;;;;;;5089879;28;20039;-55
2023/06/25 14:05:35;;;;;;;3.42;2.83;;;;;;;;;;5087815;28;20016;-57
2023/06/25 14:08:00;;;;;;;4.40;2.97;;;;;;;;;;5089650;28;20032;-57
2023/06/25 14:10:25;;;;;;;4.82;3.38;;;;;;;;;;5088943;28;20031;-54
2023/06/25 14:12:51;;;;;;;6.20;3.27;;;;;;;;;;5088957;28;20038;-56
2023/06/25 14:15:16;;;;;;;6.37;3.40;;;;;;;;;;5090033;28;20257;-58
2023/06/25 14:17:41;;;;;;;4.20;3.38;;;;;;;;;;5088814;28;21034;-56
2023/06/25 14:20:07;;;;;;;5.73;3.13;;;;;;;;;;5087291;28;20027;-58
2023/06/25 14:22:32;;;;;;;5.18;3.35;;;;;;;;;;5087688;28;20116;-58